< < Back
Terminal Aerodrome Forecast


Current Version              Previous Versions:   1  2  3  4  5  6  7  8  9  

Terminal Aerodrome Forecast

087
FTUS42 KTAE 281100
TAFDHN
TAF
KDHN 281120Z 2812/2912 01005KT P6SM SKC=

Latest METAR

771
SAUS70 KWBC 291400 RRB
MTRDHN
METAR KDHN 291353Z 14007KT 8SM CLR 04/01 A3034 RMK AO2 SLP276
T00440011


USA.gov is the U.S. government's official web portal to all federal, state and local government web resources and services.